Time;durP1;ratioP1;P1;durP2;ratioP2;P2;SDS_P1;SDS_P2;PMS_P1;PMS_P2;Temp;Humidity;BMP_temperature;BMP_pressure;BME280_temperature;BME280_humidity;BME280_pressure;Samples;Min_cycle;Max_cycle;Signal;HPM_P1;HPM_P2
2021/06/03 00:00:20;;;;;;;5.25;4.22;;;;;;;19.09;43.37;101754.97;696505;28;23449;-63
2021/06/03 00:00:45;;;;;;;4.88;4.40;;;;;;;19.08;43.04;101769.72;693277;28;113068;-64
2021/06/03 00:01:06;;;;;;;5.70;4.45;;;;;;;19.07;43.17;101754.34;692835;28;115887;-63
2021/06/03 00:01:27;;;;;;;5.55;4.85;;;;;;;19.07;43.49;101751.63;696069;28;35485;-63
2021/06/03 00:01:49;;;;;;;5.65;4.70;;;;;;;19.08;43.26;101755.19;696984;28;15786;-63
2021/06/03 00:02:11;;;;;;;4.80;4.40;;;;;;;19.07;43.29;101757.09;696729;28;20739;-63
2021/06/03 00:02:33;;;;;;;5.10;4.60;;;;;;;19.06;43.38;101765.50;695401;28;68468;-63
2021/06/03 00:02:54;;;;;;;5.75;4.70;;;;;;;19.06;43.25;101766.34;696615;28;21538;-64
2021/06/03 00:03:17;;;;;;;5.07;4.57;;;;;;;19.06;43.39;101760.03;696278;28;33987;-63
2021/06/03 00:03:38;;;;;;;4.78;4.35;;;;;;;19.06;43.13;101757.28;695900;28;46367;-63
2021/06/03 00:04:00;;;;;;;4.55;4.25;;;;;;;19.06;43.66;101755.41;695799;28;47308;-63
2021/06/03 00:04:21;;;;;;;4.85;4.53;;;;;;;19.06;43.28;101763.59;696052;28;20850;-63
2021/06/03 00:04:42;;;;;;;4.78;4.38;;;;;;;19.06;43.14;101765.50;696397;28;23577;-63
2021/06/03 00:05:04;;;;;;;4.32;4.03;;;;;;;19.06;43.56;101768.25;696355;28;21502;-64
2021/06/03 00:05:28;;;;;;;4.60;4.20;;;;;;;19.06;43.60;101757.28;695279;28;70249;-63
2021/06/03 00:05:51;;;;;;;4.75;4.25;;;;;;;19.05;43.29;101767.38;694288;28;92546;-63
2021/06/03 00:06:12;;;;;;;4.72;4.30;;;;;;;19.04;43.18;101762.13;694934;28;68309;-63
2021/06/03 00:06:33;;;;;;;4.80;4.43;;;;;;;19.05;43.12;101769.28;697139;28;17317;-63
2021/06/03 00:06:55;;;;;;;5.00;4.50;;;;;;;19.05;43.21;101764.66;697376;28;10774;-63
2021/06/03 00:07:16;;;;;;;4.90;4.40;;;;;;;19.04;43.41;101760.25;696970;28;19417;-62
2021/06/03 00:07:38;;;;;;;5.10;4.60;;;;;;;19.05;43.45;101764.66;696070;28;45358;-63
2021/06/03 00:07:59;;;;;;;4.40;4.10;;;;;;;19.04;43.61;101771.19;696437;28;22494;-63
2021/06/03 00:08:21;;;;;;;4.35;4.05;;;;;;;19.04;43.49;101765.72;697065;28;22550;-63
2021/06/03 00:08:45;;;;;;;4.75;4.43;;;;;;;19.04;43.43;101770.34;695175;28;68446;-63
2021/06/03 00:09:08;;;;;;;5.10;4.70;;;;;;;19.04;43.69;101767.59;694958;28;69325;-63
2021/06/03 00:09:30;;;;;;;5.20;4.47;;;;;;;19.03;43.62;101761.28;693344;28;92392;-63
2021/06/03 00:09:51;;;;;;;4.78;4.40;;;;;;;19.03;43.65;101765.94;696638;28;23405;-63
2021/06/03 00:10:13;;;;;;;5.03;4.63;;;;;;;19.01;43.81;101760.66;696674;28;1186;-63
2021/06/03 00:10:37;;;;;;;5.00;4.50;;;;;;;19.01;43.86;101765.28;695448;28;59454;-63
2021/06/03 00:11:00;;;;;;;5.50;4.53;;;;;;;19.01;43.47;101760.66;693931;28;89401;-63
2021/06/03 00:11:21;;;;;;;6.82;4.85;;;;;;;19.01;43.99;101760.66;695337;28;69340;-63
2021/06/03 00:11:51;;;;;;;4.93;4.53;;;;;;;19.01;43.71;101766.13;691589;28;20949;-62
2021/06/03 00:12:12;;;;;;;5.93;4.15;;;;;;;19.00;43.46;101761.69;687462;28;137739;-63
2021/06/03 00:12:35;;;;;;;4.82;4.43;;;;;;;19.00;43.63;101758.13;690467;28;23570;-64
2021/06/03 00:12:59;;;;;;;4.93;4.53;;;;;;;18.98;43.62;101762.94;687906;28;38118;-63
2021/06/03 00:13:21;;;;;;;4.82;4.43;;;;;;;18.98;43.39;101760.22;688530;28;22490;-63
2021/06/03 00:13:44;;;;;;;6.40;4.60;;;;;;;18.97;43.74;101762.13;688868;28;67529;-63
2021/06/03 00:14:05;;;;;;;6.80;4.40;;;;;;;18.96;43.75;101760.41;689346;28;70532;-64
2021/06/03 00:14:26;;;;;;;4.90;4.40;;;;;;;18.95;44.01;101764.22;690813;28;22546;-63
2021/06/03 00:14:48;;;;;;;4.53;4.15;;;;;;;18.94;43.71;101757.06;693030;28;3861;-63
2021/06/03 00:15:12;;;;;;;5.40;4.38;;;;;;;18.96;43.99;101760.41;693156;28;41678;-63
2021/06/03 00:15:34;;;;;;;4.82;4.43;;;;;;;18.95;44.08;101760.63;693699;28;52468;-64
2021/06/03 00:15:57;;;;;;;5.35;4.60;;;;;;;18.94;43.74;101759.78;695198;28;47184;-64
2021/06/03 00:16:21;;;;;;;5.30;4.90;;;;;;;18.94;44.03;101765.25;695996;28;37821;-63
2021/06/03 00:16:42;;;;;;;5.63;4.65;;;;;;;18.94;43.95;101762.53;696579;28;13092;-63
2021/06/03 00:17:04;;;;;;;5.55;4.90;;;;;;;18.93;44.07;101760.84;693961;28;10643;-63
2021/06/03 00:17:27;;;;;;;5.22;4.72;;;;;;;18.94;43.77;101758.97;692578;28;1114;-63
2021/06/03 00:17:48;;;;;;;5.22;4.72;;;;;;;18.92;43.59;101761.91;690051;28;69169;-64
2021/06/03 00:18:10;;;;;;;5.10;4.60;;;;;;;18.90;43.96;101750.28;692632;28;23538;-64
2021/06/03 00:18:31;;;;;;;5.55;4.68;;;;;;;18.89;43.85;101757.69;689517;28;21654;-64
2021/06/03 00:18:53;;;;;;;5.00;4.50;;;;;;;18.89;43.85;101754.94;688404;28;1001;-64
2021/06/03 00:19:14;;;;;;;5.03;4.53;;;;;;;18.90;43.89;101758.50;689235;28;13403;-64
2021/06/03 00:19:35;;;;;;;5.57;4.90;;;;;;;18.90;43.89;101761.25;688353;28;1529;-64
2021/06/03 00:19:56;;;;;;;4.90;4.50;;;;;;;18.88;43.78;101750.50;688684;28;22366;-64
2021/06/03 00:20:21;;;;;;;5.00;4.60;;;;;;;18.87;43.83;101758.94;688605;28;23467;-64
2021/06/03 00:20:43;;;;;;;5.38;4.88;;;;;;;18.85;43.99;101756.41;688795;28;113595;-64
2021/06/03 00:21:05;;;;;;;5.15;4.75;;;;;;;18.86;44.04;101757.25;691504;28;46270;-63
2021/06/03 00:21:27;;;;;;;5.00;4.60;;;;;;;18.85;43.92;101750.09;693931;28;46313;-63
2021/06/03 00:21:48;;;;;;;5.07;4.57;;;;;;;18.84;44.09;101749.25;697096;28;6168;-64
2021/06/03 00:22:09;;;;;;;4.97;4.57;;;;;;;18.85;43.65;101759.13;696293;28;22364;-64
2021/06/03 00:22:30;;;;;;;5.57;4.70;;;;;;;18.84;43.58;101757.47;696353;28;23541;-63
2021/06/03 00:22:52;;;;;;;7.30;4.50;;;;;;;18.84;43.51;101756.56;695643;28;46333;-64
2021/06/03 00:23:13;;;;;;;5.07;4.35;;;;;;;18.83;43.83;101752.16;696662;28;21537;-63
2021/06/03 00:23:35;;;;;;;5.25;4.75;;;;;;;18.84;43.83;101759.31;696793;28;10712;-64
2021/06/03 00:23:57;;;;;;;4.80;4.50;;;;;;;18.83;43.89;101754.91;696255;28;45238;-64
2021/06/03 00:24:19;;;;;;;5.20;4.70;;;;;;;18.82;43.64;101758.69;695277;28;47346;-64
2021/06/03 00:24:41;;;;;;;6.93;4.68;;;;;;;18.82;44.13;101747.72;697680;28;941;-64
2021/06/03 00:25:03;;;;;;;4.97;4.40;;;;;;;18.80;43.84;101752.56;696763;28;9277;-64
2021/06/03 00:25:25;;;;;;;5.05;4.60;;;;;;;18.79;43.90;101745.41;695735;28;46018;-63
2021/06/03 00:25:46;;;;;;;6.10;4.93;;;;;;;18.80;43.83;101750.69;694720;28;46314;-63
2021/06/03 00:26:07;;;;;;;5.15;4.53;;;;;;;18.79;43.83;101751.72;696555;28;23527;-64
2021/06/03 00:26:29;;;;;;;4.90;4.50;;;;;;;18.77;43.95;101755.72;696929;28;16991;-64
2021/06/03 00:26:50;;;;;;;5.03;4.63;;;;;;;18.79;43.84;101750.88;693191;28;34197;-64
2021/06/03 00:27:11;;;;;;;5.22;4.72;;;;;;;18.77;43.77;101756.56;694563;28;2279;-64
2021/06/03 00:27:32;;;;;;;5.10;4.60;;;;;;;18.76;43.87;101748.56;692757;28;20848;-64
2021/06/03 00:27:54;;;;;;;5.22;4.63;;;;;;;18.74;44.11;101751.50;693182;28;9730;-66
2021/06/03 00:28:15;;;;;;;4.72;4.32;;;;;;;18.74;43.84;101751.50;692586;28;40777;-64
2021/06/03 00:28:37;;;;;;;4.93;4.60;;;;;;;18.74;44.09;101754.25;693709;28;23400;-63
2021/06/03 00:28:58;;;;;;;4.93;4.53;;;;;;;18.74;43.99;101754.25;695871;28;23412;-63
2021/06/03 00:29:19;;;;;;;4.97;4.57;;;;;;;18.72;44.00;101757.19;694682;28;46120;-62
2021/06/03 00:29:40;;;;;;;5.20;4.80;;;;;;;18.72;43.95;101753.63;696886;28;21311;-64
2021/06/03 00:30:03;;;;;;;5.53;4.78;;;;;;;18.72;44.25;101753.63;696813;28;22410;-63
2021/06/03 00:30:24;;;;;;;5.10;4.60;;;;;;;18.71;44.26;101746.44;696363;28;44539;-64
2021/06/03 00:30:46;;;;;;;5.05;4.65;;;;;;;18.70;44.38;101751.09;696460;28;23471;-64
2021/06/03 00:31:11;;;;;;;4.93;4.53;;;;;;;18.69;44.35;101754.03;695239;28;61919;-63
2021/06/03 00:31:32;;;;;;;5.03;4.63;;;;;;;18.70;44.02;101747.50;696709;28;22480;-63
2021/06/03 00:31:53;;;;;;;5.30;4.80;;;;;;;18.70;44.37;101744.78;696026;28;46298;-63
2021/06/03 00:32:15;;;;;;;4.78;4.38;;;;;;;18.70;44.17;101756.56;696957;28;18783;-64
2021/06/03 00:32:36;;;;;;;5.82;4.68;;;;;;;18.70;44.39;101751.09;696059;28;32055;-62
2021/06/03 00:32:58;;;;;;;5.32;4.63;;;;;;;18.69;44.21;101746.66;695975;28;24455;-63
2021/06/03 00:33:19;;;;;;;5.65;4.70;;;;;;;18.69;44.11;101754.03;696074;28;22403;-62
2021/06/03 00:33:40;;;;;;;5.28;4.78;;;;;;;18.70;44.47;101750.25;695924;28;46624;-63
2021/06/03 00:34:01;;;;;;;4.88;4.47;;;;;;;18.69;44.08;101751.28;697327;28;10221;-63
2021/06/03 00:34:23;;;;;;;4.60;4.30;;;;;;;18.69;44.00;101754.03;695422;28;21521;-62
2021/06/03 00:34:44;;;;;;;4.90;4.55;;;;;;;18.69;44.06;101752.13;697053;28;15525;-63
2021/06/03 00:35:07;;;;;;;5.00;4.60;;;;;;;18.69;43.88;101751.28;697135;28;19541;-62
2021/06/03 00:35:28;;;;;;;5.18;4.63;;;;;;;18.68;44.16;101757.81;696623;28;20607;-64
2021/06/03 00:35:49;;;;;;;5.05;4.55;;;;;;;18.68;43.94;101752.31;696751;28;22331;-62
2021/06/03 00:36:12;;;;;;;4.80;4.40;;;;;;;18.67;44.17;101758.88;697228;28;4060;-64
2021/06/03 00:36:33;;;;;;;5.07;4.68;;;;;;;18.66;44.00;101751.69;695022;28;65653;-64
2021/06/03 00:36:54;;;;;;;4.95;4.55;;;;;;;18.65;43.94;101747.25;696706;28;14692;-63
2021/06/03 00:37:15;;;;;;;5.32;4.82;;;;;;;18.63;43.98;101746.63;696354;28;23034;-64
2021/06/03 00:37:37;;;;;;;5.45;4.50;;;;;;;18.63;44.05;101755.69;692661;28;23438;-63
2021/06/03 00:37:59;;;;;;;7.90;4.63;;;;;;;18.63;44.22;101760.31;693530;28;12950;-63
2021/06/03 00:38:20;;;;;;;6.85;5.00;;;;;;;18.63;44.13;101758.41;693312;28;46473;-64
2021/06/03 00:38:41;;;;;;;5.30;4.80;;;;;;;18.62;43.85;101750.41;694813;28;843;-63
2021/06/03 00:39:03;;;;;;;5.00;4.60;;;;;;;18.62;44.05;101753.16;694554;28;1020;-63
2021/06/03 00:39:26;;;;;;;4.90;4.47;;;;;;;18.62;44.52;101754.00;692413;28;41952;-64
2021/06/03 00:39:47;;;;;;;5.30;4.80;;;;;;;18.62;44.28;101754.00;695130;28;68618;-63
2021/06/03 00:40:11;;;;;;;5.10;4.70;;;;;;;18.61;44.34;101755.06;696773;28;22390;-63
2021/06/03 00:40:32;;;;;;;5.82;4.72;;;;;;;18.60;44.28;101753.34;694627;28;90341;-63
2021/06/03 00:40:55;;;;;;;6.53;4.90;;;;;;;18.61;44.19;101756.94;696589;28;1782;-63
2021/06/03 00:41:17;;;;;;;5.45;4.95;;;;;;;18.61;44.35;101756.94;695367;28;45396;-63
2021/06/03 00:41:38;;;;;;;5.13;4.72;;;;;;;18.63;44.25;101752.13;695807;28;39929;-64
2021/06/03 00:41:59;;;;;;;5.97;4.70;;;;;;;18.65;44.03;101755.47;696934;28;21541;-63
2021/06/03 00:42:21;;;;;;;6.70;5.13;;;;;;;18.63;43.73;101758.41;697627;28;945;-64
2021/06/03 00:42:43;;;;;;;5.63;4.82;;;;;;;18.62;43.92;101748.53;697126;28;1362;-63
2021/06/03 00:43:05;;;;;;;4.97;4.47;;;;;;;18.62;43.99;101748.53;696435;28;27223;-64
2021/06/03 00:43:26;;;;;;;5.10;4.70;;;;;;;18.63;44.24;101750.22;696627;28;18990;-63
2021/06/03 00:43:47;;;;;;;5.22;4.65;;;;;;;18.61;44.17;101749.59;696419;28;35500;-63
2021/06/03 00:44:10;;;;;;;4.70;4.30;;;;;;;18.61;44.38;101751.47;696821;28;22124;-64
2021/06/03 00:44:31;;;;;;;4.85;4.45;;;;;;;18.61;44.00;101754.22;695497;28;60523;-63
2021/06/03 00:44:52;;;;;;;5.10;4.70;;;;;;;18.59;44.02;101754.44;697045;28;22389;-64
2021/06/03 00:45:14;;;;;;;5.32;4.82;;;;;;;18.58;44.14;101752.72;697201;28;7728;-64
2021/06/03 00:45:37;;;;;;;5.57;5.07;;;;;;;18.59;44.25;101751.69;695383;28;43137;-63
2021/06/03 00:45:59;;;;;;;5.22;4.60;;;;;;;18.59;44.41;101750.81;695045;28;55939;-64
2021/06/03 00:46:20;;;;;;;5.15;4.65;;;;;;;18.57;44.33;101759.22;697750;28;909;-63
2021/06/03 00:46:41;;;;;;;5.18;4.68;;;;;;;18.57;44.19;101758.41;696669;28;22607;-62
2021/06/03 00:47:03;;;;;;;5.50;5.00;;;;;;;18.56;44.46;101760.31;696864;28;22382;-63
2021/06/03 00:47:24;;;;;;;5.05;4.65;;;;;;;18.55;44.43;101748.50;695178;28;47844;-64
2021/06/03 00:47:46;;;;;;;5.00;4.60;;;;;;;18.55;44.37;101753.13;695919;28;18754;-63
2021/06/03 00:48:08;;;;;;;6.18;4.95;;;;;;;18.56;44.20;101754.84;690144;28;42207;-63
2021/06/03 00:48:30;;;;;;;5.30;4.80;;;;;;;18.55;44.26;101748.50;692145;28;1003;-63
2021/06/03 00:48:51;;;;;;;5.10;4.70;;;;;;;18.54;44.07;101746.84;691364;28;22455;-64
2021/06/03 00:49:13;;;;;;;5.10;4.70;;;;;;;18.54;44.20;101754.19;689972;28;47181;-63
2021/06/03 00:49:34;;;;;;;4.97;4.57;;;;;;;18.54;44.39;101751.44;690714;28;1211;-62
2021/06/03 00:49:55;;;;;;;4.80;4.50;;;;;;;18.52;44.42;101748.06;691580;28;42982;-63
2021/06/03 00:50:19;;;;;;;4.88;4.43;;;;;;;18.52;44.40;101753.53;695859;28;45395;-64
2021/06/03 00:50:47;;;;;;;5.90;4.43;;;;;;;18.51;44.34;101755.44;689671;28;134366;-63
2021/06/03 00:51:09;;;;;;;6.10;4.70;;;;;;;18.50;44.29;101756.50;691600;28;69502;-64
2021/06/03 00:51:30;;;;;;;4.85;4.28;;;;;;;18.48;44.10;101755.00;693036;28;37290;-63
2021/06/03 00:51:51;;;;;;;5.22;4.70;;;;;;;18.48;44.17;101755.84;691495;28;16452;-64
2021/06/03 00:52:12;;;;;;;5.00;4.60;;;;;;;18.47;44.43;101754.16;689185;28;15015;-64
2021/06/03 00:52:34;;;;;;;5.20;4.70;;;;;;;18.45;44.33;101753.53;688973;28;24363;-64
2021/06/03 00:52:55;;;;;;;5.00;4.60;;;;;;;18.46;44.73;101754.38;690225;28;41567;-63
2021/06/03 00:53:18;;;;;;;5.20;4.47;;;;;;;18.46;44.36;101754.38;686834;28;44443;-64
2021/06/03 00:53:40;;;;;;;5.35;4.72;;;;;;;18.45;44.78;101748.06;682892;28;43021;-64
2021/06/03 00:54:02;;;;;;;5.13;4.63;;;;;;;18.44;44.48;101748.25;683665;28;67342;-63
2021/06/03 00:54:24;;;;;;;5.78;4.75;;;;;;;18.45;44.07;101750.78;684993;28;1985;-63
2021/06/03 00:54:49;;;;;;;5.40;4.90;;;;;;;18.46;44.23;101748.91;678606;29;111252;-63
2021/06/03 00:55:11;;;;;;;5.40;4.90;;;;;;;18.46;44.31;101749.72;681757;28;46275;-63
2021/06/03 00:55:33;;;;;;;5.05;4.57;;;;;;;18.47;44.02;101751.44;685317;28;45259;-63
2021/06/03 00:55:57;;;;;;;5.68;4.90;;;;;;;18.47;44.46;101751.44;686057;28;34463;-63
2021/06/03 00:56:21;;;;;;;4.82;4.43;;;;;;;18.46;44.39;101751.63;686641;28;138767;-63
2021/06/03 00:56:43;;;;;;;4.90;4.33;;;;;;;18.45;44.12;101749.94;689307;28;42643;-63
2021/06/03 00:57:06;;;;;;;5.25;4.75;;;;;;;18.45;44.25;101753.53;687942;28;88758;-63
2021/06/03 00:57:27;;;;;;;6.13;5.10;;;;;;;18.46;44.35;101747.00;691140;28;21514;-63
2021/06/03 00:57:49;;;;;;;5.50;4.80;;;;;;;18.46;44.46;101747.00;689047;28;21754;-63
2021/06/03 00:58:10;;;;;;;5.28;4.78;;;;;;;18.46;44.55;101749.72;690086;28;44649;-63
2021/06/03 00:58:34;;;;;;;5.97;4.93;;;;;;;18.46;44.55;101748.91;690801;28;22421;-63
2021/06/03 00:58:55;;;;;;;5.68;4.85;;;;;;;18.44;44.19;101748.25;688037;28;90083;-63
2021/06/03 00:59:22;;;;;;;5.00;4.60;;;;;;;18.43;44.24;101746.56;683499;28;136448;-63
2021/06/03 00:59:43;;;;;;;5.00;4.60;;;;;;;18.42;44.57;101751.22;689580;28;22333;-63
2021/06/03 01:00:07;;;;;;;5.28;4.78;;;;;;;18.43;44.57;101750.16;689857;28;45223;-63
2021/06/03 01:00:28;;;;;;;5.30;4.80;;;;;;;18.42;44.50;101744.91;688500;28;48329;-64
2021/06/03 01:00:52;;;;;;;4.97;4.57;;;;;;;18.42;44.31;101750.38;685160;28;45251;-63
2021/06/03 01:01:13;;;;;;;4.72;4.43;;;;;;;18.39;44.45;101750.78;684831;28;69393;-63
2021/06/03 01:01:35;;;;;;;4.95;4.45;;;;;;;18.39;44.62;101742.56;682766;28;45076;-63
2021/06/03 01:01:56;;;;;;;7.00;4.75;;;;;;;18.38;44.60;101747.19;682891;28;19579;-63
2021/06/03 01:02:22;;;;;;;5.70;4.85;;;;;;;18.37;44.86;101749.09;679502;28;138286;-63
2021/06/03 01:02:44;;;;;;;4.63;4.22;;;;;;;18.37;44.62;101749.09;685294;28;35266;-64
2021/06/03 01:03:06;;;;;;;4.78;4.38;;;;;;;18.37;44.86;101751.81;688622;28;1004;-63
2021/06/03 01:03:29;;;;;;;5.10;4.68;;;;;;;18.37;44.70;101745.50;689199;28;40715;-63
2021/06/03 01:03:52;;;;;;;5.38;4.97;;;;;;;18.39;44.83;101754.34;683009;28;114977;-64
2021/06/03 01:04:17;;;;;;;6.07;4.93;;;;;;;18.39;44.44;101748.88;686152;28;21539;-64
2021/06/03 01:04:38;;;;;;;5.45;4.75;;;;;;;18.38;44.43;101749.91;681983;28;113602;-64
2021/06/03 01:04:59;;;;;;;5.10;4.70;;;;;;;18.37;44.34;101750.97;687364;28;23725;-63
2021/06/03 01:05:25;;;;;;;5.38;4.82;;;;;;;18.39;44.22;101748.03;683186;28;90763;-63
2021/06/03 01:05:49;;;;;;;5.20;4.70;;;;;;;18.38;44.37;101752.66;686330;28;90328;-63
2021/06/03 01:06:11;;;;;;;5.15;4.80;;;;;;;18.36;44.22;101755.59;688049;28;70342;-64
2021/06/03 01:06:34;;;;;;;5.40;4.90;;;;;;;18.36;44.27;101747.38;685162;28;93176;-63
2021/06/03 01:06:56;;;;;;;5.03;4.63;;;;;;;18.35;44.58;101747.59;683795;28;22382;-62
2021/06/03 01:07:17;;;;;;;5.13;4.72;;;;;;;18.35;44.60;101745.72;682349;28;46305;-63
2021/06/03 01:07:39;;;;;;;4.97;4.68;;;;;;;18.35;44.75;101744.84;681929;28;23544;-63
2021/06/03 01:08:03;;;;;;;5.80;4.40;;;;;;;18.34;44.78;101748.66;682441;28;16847;-63
2021/06/03 01:08:32;;;;;;;4.82;4.43;;;;;;;18.32;44.60;101746.13;684168;28;90837;-63
2021/06/03 01:09:00;;;;;;;5.15;4.65;;;;;;;18.33;44.76;101746.97;683951;28;129960;-64
2021/06/03 01:09:28;;;;;;;6.30;4.63;;;;;;;18.33;44.43;101745.06;684985;28;160589;-63
2021/06/03 01:09:57;;;;;;;4.80;4.43;;;;;;;18.31;44.67;101752.63;686025;28;160892;-64
2021/06/03 01:10:21;;;;;;;4.88;4.57;;;;;;;18.31;44.86;101760.00;688570;28;138509;-64
2021/06/03 01:10:48;;;;;;;5.25;4.68;;;;;;;18.28;44.49;101750.31;691671;28;91800;-63
2021/06/03 01:11:16;;;;;;;5.40;4.88;;;;;;;18.26;44.51;101746.06;688889;28;137915;-63
2021/06/03 01:11:42;;;;;;;5.95;5.35;;;;;;;18.25;44.72;101744.41;690106;28;129310;-63
2021/06/03 01:12:09;;;;;;;5.05;4.55;;;;;;;18.25;44.58;101750.72;691891;28;133875;-63
2021/06/03 01:12:37;;;;;;;5.40;4.90;;;;;;;18.25;44.79;101745.25;692356;28;115116;-63
2021/06/03 01:13:04;;;;;;;5.38;4.82;;;;;;;18.24;44.50;101740.81;692009;28;138052;-63
2021/06/03 01:13:32;;;;;;;5.13;4.60;;;;;;;18.26;44.49;101746.06;689648;28;137133;-63
2021/06/03 01:13:57;;;;;;;4.90;4.50;;;;;;;18.25;44.59;101749.88;687160;28;137586;-64
2021/06/03 01:14:24;;;;;;;5.05;4.65;;;;;;;18.24;44.67;101748.19;683987;28;136502;-63
2021/06/03 01:14:50;;;;;;;6.47;5.00;;;;;;;18.23;44.72;101752.81;681389;28;138240;-63
2021/06/03 01:15:11;;;;;;;5.30;4.90;;;;;;;18.23;44.41;101751.94;682033;28;113599;-64
2021/06/03 01:15:33;;;;;;;5.07;4.68;;;;;;;18.22;44.68;101751.13;683898;28;45207;-63
2021/06/03 01:15:55;;;;;;;5.05;4.65;;;;;;;18.22;44.35;101750.28;683844;28;19366;-63
2021/06/03 01:16:17;;;;;;;4.95;4.55;;;;;;;18.21;44.68;101752.16;685600;28;15046;-63
2021/06/03 01:16:39;;;;;;;5.63;4.60;;;;;;;18.23;44.75;101746.47;687518;28;40604;-63
2021/06/03 01:17:01;;;;;;;5.15;4.75;;;;;;;18.22;44.69;101753.84;686548;28;37707;-63
2021/06/03 01:17:22;;;;;;;5.20;4.70;;;;;;;18.21;44.73;101751.31;686812;28;46489;-63
2021/06/03 01:17:45;;;;;;;5.20;4.70;;;;;;;18.22;44.80;101750.28;685993;28;45262;-64
2021/06/03 01:18:06;;;;;;;4.57;4.28;;;;;;;18.22;44.85;101751.13;687410;28;37704;-63
2021/06/03 01:18:29;;;;;;;6.22;4.63;;;;;;;18.21;44.40;101754.06;685053;28;46335;-63
2021/06/03 01:18:52;;;;;;;5.57;4.85;;;;;;;18.19;44.75;101746.88;685942;28;46376;-63
2021/06/03 01:19:18;;;;;;;5.05;4.65;;;;;;;18.19;44.53;101751.53;684668;28;62330;-64
2021/06/03 01:19:41;;;;;;;5.10;4.70;;;;;;;18.19;44.52;101746.06;681140;28;136057;-64
2021/06/03 01:20:03;;;;;;;5.28;4.88;;;;;;;18.17;44.49;101751.72;685438;28;70289;-63
2021/06/03 01:20:25;;;;;;;5.03;4.65;;;;;;;18.16;44.35;101752.75;686868;28;42067;-62
2021/06/03 01:20:49;;;;;;;5.40;4.63;;;;;;;18.15;44.75;101748.34;688430;28;20884;-64
2021/06/03 01:21:16;;;;;;;6.57;4.82;;;;;;;18.14;44.42;101748.56;682890;28;121871;-64
2021/06/03 01:21:44;;;;;;;5.45;5.00;;;;;;;18.14;44.87;101751.28;687981;28;87117;-63
2021/06/03 01:22:11;;;;;;;4.72;4.43;;;;;;;18.13;44.82;101753.16;689241;28;59842;-63
2021/06/03 01:22:40;;;;;;;4.75;4.35;;;;;;;18.13;44.58;101758.63;688169;28;138152;-64
2021/06/03 01:23:04;;;;;;;5.95;5.30;;;;;;;18.12;44.40;101750.63;690761;28;121870;-63
2021/06/03 01:23:29;;;;;;;6.25;4.97;;;;;;;18.12;44.55;101753.38;691044;28;77280;-63
2021/06/03 01:23:58;;;;;;;5.10;4.60;;;;;;;18.11;44.58;101752.53;688448;28;86816;-64
2021/06/03 01:24:25;;;;;;;6.30;5.00;;;;;;;18.10;44.38;101750.00;683340;28;137880;-63
2021/06/03 01:24:48;;;;;;;5.10;4.70;;;;;;;18.10;44.74;101750.88;684434;28;127237;-64
2021/06/03 01:25:12;;;;;;;5.20;4.80;;;;;;;18.10;44.69;101750.88;685903;28;38562;-64
2021/06/03 01:25:33;;;;;;;5.35;4.95;;;;;;;18.11;44.91;101748.97;683685;28;63443;-62
2021/06/03 01:25:55;;;;;;;4.80;4.50;;;;;;;18.11;44.86;101751.69;687784;28;31421;-64
2021/06/03 01:26:17;;;;;;;4.95;4.55;;;;;;;18.11;44.73;101754.44;689146;28;41227;-63
2021/06/03 01:26:38;;;;;;;5.35;4.45;;;;;;;18.09;44.51;101748.34;688376;28;22375;-63
2021/06/03 01:27:03;;;;;;;6.45;4.90;;;;;;;18.09;45.07;101751.06;689411;28;8322;-62
2021/06/03 01:27:29;;;;;;;4.88;4.38;;;;;;;18.10;44.92;101758.19;683466;28;137917;-63
2021/06/03 01:27:53;;;;;;;5.57;5.10;;;;;;;18.10;44.85;101750.00;681382;28;138160;-63
2021/06/03 01:28:18;;;;;;;5.28;4.78;;;;;;;18.12;44.67;101748.75;682546;28;115282;-63
2021/06/03 01:28:39;;;;;;;5.00;4.68;;;;;;;18.12;44.56;101756.09;688231;28;22276;-63
2021/06/03 01:29:02;;;;;;;5.53;4.97;;;;;;;18.09;44.57;101754.63;687580;28;46339;-63
2021/06/03 01:29:24;;;;;;;5.30;4.80;;;;;;;18.10;44.35;101750.00;687051;28;69248;-63
2021/06/03 01:29:51;;;;;;;5.07;4.68;;;;;;;18.09;44.23;101753.81;690801;28;45246;-64
2021/06/03 01:30:17;;;;;;;5.90;4.90;;;;;;;18.07;44.56;101751.28;690117;28;136755;-63
2021/06/03 01:30:42;;;;;;;5.30;4.82;;;;;;;18.07;44.52;101755.88;686989;28;138283;-63
2021/06/03 01:31:03;;;;;;;5.03;4.60;;;;;;;18.05;44.72;101750.59;689640;28;51915;-62
2021/06/03 01:31:25;;;;;;;5.75;4.97;;;;;;;18.06;44.60;101754.19;692777;28;46249;-62
2021/06/03 01:31:47;;;;;;;4.97;4.60;;;;;;;18.04;44.65;101754.41;693753;28;21538;-63
2021/06/03 01:32:12;;;;;;;5.10;4.60;;;;;;;18.03;44.71;101752.72;689446;28;138988;-63
2021/06/03 01:32:36;;;;;;;5.78;4.63;;;;;;;18.03;44.57;101752.72;693916;28;45613;-63
2021/06/03 01:33:01;;;;;;;6.30;4.75;;;;;;;18.00;44.74;101751.22;695641;28;37977;-63
2021/06/03 01:33:25;;;;;;;5.43;4.93;;;;;;;18.00;44.91;101756.69;695815;28;51780;-64
2021/06/03 01:33:46;;;;;;;5.15;4.68;;;;;;;18.00;44.71;101753.94;693709;28;91164;-63
2021/06/03 01:34:10;;;;;;;5.03;4.57;;;;;;;18.01;44.47;101752.91;692065;28;45660;-64
2021/06/03 01:34:31;;;;;;;5.00;4.60;;;;;;;18.02;44.82;101756.47;689402;28;66136;-64
2021/06/03 01:34:57;;;;;;;4.93;4.53;;;;;;;18.01;44.69;101754.81;687048;28;113642;-63
2021/06/03 01:35:20;;;;;;;4.90;4.50;;;;;;;18.01;44.71;101752.06;690426;28;46467;-63
2021/06/03 01:35:45;;;;;;;5.90;4.88;;;;;;;17.99;44.57;101752.28;687785;28;115191;-63
2021/06/03 01:36:07;;;;;;;6.27;4.60;;;;;;;17.99;45.06;101755.00;690302;28;89141;-63
2021/06/03 01:36:29;;;;;;;5.10;4.60;;;;;;;17.99;44.59;101754.16;692381;28;70300;-64
2021/06/03 01:36:51;;;;;;;5.00;4.60;;;;;;;17.99;44.96;101759.59;694285;28;46403;-63
2021/06/03 01:37:12;;;;;;;4.90;4.35;;;;;;;17.97;44.87;101757.06;696007;28;46708;-64
2021/06/03 01:37:36;;;;;;;7.13;4.70;;;;;;;17.98;44.76;101756.03;693225;28;2078;-63
2021/06/03 01:37:57;;;;;;;5.85;4.68;;;;;;;17.97;44.98;101759.81;685903;28;69203;-63
2021/06/03 01:38:24;;;;;;;5.97;5.00;;;;;;;17.98;44.88;101756.03;688108;28;21691;-64
2021/06/03 01:38:46;;;;;;;5.20;4.80;;;;;;;17.98;45.16;101755.22;684435;28;138953;-63
2021/06/03 01:39:10;;;;;;;5.38;4.88;;;;;;;17.97;44.88;101756.25;685875;28;68470;-64
2021/06/03 01:39:33;;;;;;;6.30;4.75;;;;;;;17.98;44.93;101758.78;688880;28;46286;-62
2021/06/03 01:39:54;;;;;;;5.32;4.82;;;;;;;17.99;44.55;101757.75;692888;28;65508;-63
2021/06/03 01:40:17;;;;;;;5.72;4.80;;;;;;;17.97;44.54;101757.06;691335;28;69607;-64
2021/06/03 01:40:42;;;;;;;4.88;4.47;;;;;;;17.96;44.81;101758.16;690656;28;92252;-63
2021/06/03 01:41:05;;;;;;;5.03;4.63;;;;;;;17.96;44.44;101758.16;690117;28;115596;-64
2021/06/03 01:41:26;;;;;;;5.28;4.88;;;;;;;17.96;44.62;101763.59;691529;28;69461;-63
2021/06/03 01:41:48;;;;;;;5.18;4.78;;;;;;;17.96;44.88;101766.34;692451;28;24361;-63
2021/06/03 01:42:11;;;;;;;5.93;4.50;;;;;;;17.96;44.99;101763.59;690432;28;69448;-63
2021/06/03 01:42:33;;;;;;;5.40;4.90;;;;;;;17.95;44.82;101759.19;692816;28;46399;-64
2021/06/03 01:42:55;;;;;;;5.25;4.85;;;;;;;17.96;44.61;101769.06;689699;28;44437;-63
2021/06/03 01:43:19;;;;;;;5.45;4.95;;;;;;;17.97;45.13;101761.72;686701;28;46399;-63
2021/06/03 01:43:43;;;;;;;5.00;4.60;;;;;;;17.97;44.95;101765.28;682656;28;92020;-63
2021/06/03 01:44:05;;;;;;;5.68;4.60;;;;;;;17.98;45.09;101764.25;685101;28;69418;-63
2021/06/03 01:44:27;;;;;;;5.25;4.43;;;;;;;17.97;45.05;101761.72;687555;28;46407;-63
2021/06/03 01:44:49;;;;;;;5.00;4.60;;;;;;;17.97;44.98;101768.00;684077;28;67479;-64
2021/06/03 01:45:11;;;;;;;5.30;4.80;;;;;;;17.97;45.09;101769.91;687628;28;23458;-63
2021/06/03 01:45:33;;;;;;;5.40;4.90;;;;;;;17.98;44.66;101763.41;686322;28;45246;-63
2021/06/03 01:45:55;;;;;;;5.32;4.82;;;;;;;17.97;45.07;101765.28;687887;28;46317;-64
2021/06/03 01:46:21;;;;;;;5.28;4.78;;;;;;;17.98;44.65;101757.94;685021;28;116044;-63
2021/06/03 01:46:43;;;;;;;5.20;4.80;;;;;;;17.97;44.94;101767.19;686856;28;92094;-63
2021/06/03 01:47:05;;;;;;;5.18;4.78;;;;;;;17.94;44.94;101765.69;689255;28;22920;-64